createdAt,value
2022-08-29T00:01:00.957Z,17.90
2022-08-29T00:04:03.941Z,17.90
2022-08-29T00:07:07.309Z,17.80
2022-08-29T00:10:09.562Z,17.90
2022-08-29T00:13:13.172Z,17.80
2022-08-29T00:16:15.131Z,17.80
2022-08-29T00:19:16.953Z,17.80
2022-08-29T00:22:18.669Z,17.70
2022-08-29T00:25:20.642Z,17.60
2022-08-29T00:28:22.901Z,17.60
2022-08-29T00:31:24.713Z,17.60
2022-08-29T00:34:26.469Z,17.50
2022-08-29T00:37:28.543Z,17.50
2022-08-29T00:40:36.582Z,17.50
2022-08-29T00:43:38.472Z,17.30
2022-08-29T00:46:47.799Z,17.40
2022-08-29T00:49:52.728Z,17.40
2022-08-29T00:52:57.353Z,17.40
2022-08-29T00:56:00.084Z,17.50
2022-08-29T00:59:12.840Z,17.20
2022-08-29T01:02:15.291Z,17.00
2022-08-29T01:05:19.761Z,16.90
2022-08-29T01:08:22.193Z,17.00
2022-08-29T01:11:43.646Z,17.00
2022-08-29T01:14:59.611Z,17.00
2022-08-29T01:18:04.938Z,17.00
2022-08-29T01:21:14.135Z,16.90
2022-08-29T01:24:16.122Z,17.00
2022-08-29T01:27:25.275Z,16.80
2022-08-29T01:30:27.344Z,16.90
2022-08-29T01:33:41.089Z,16.90
2022-08-29T01:36:53.533Z,16.60
2022-08-29T01:39:55.401Z,16.60
2022-08-29T01:42:57.588Z,16.60
2022-08-29T01:45:59.735Z,16.40
2022-08-29T01:49:03.338Z,16.40
2022-08-29T01:52:06.902Z,16.30
2022-08-29T01:55:08.963Z,16.30
2022-08-29T01:58:10.770Z,16.40
2022-08-29T02:01:15.326Z,16.40
2022-08-29T02:04:17.784Z,16.40
2022-08-29T02:07:21.328Z,16.40
2022-08-29T02:10:24.044Z,16.50
2022-08-29T02:13:25.865Z,16.40
2022-08-29T02:16:29.059Z,16.40
2022-08-29T02:19:32.583Z,16.20
2022-08-29T02:22:35.935Z,16.20
2022-08-29T02:25:44.074Z,16.30
2022-08-29T02:28:46.988Z,16.30
2022-08-29T02:31:49.256Z,16.20
2022-08-29T02:34:51.269Z,16.20
2022-08-29T02:37:53.549Z,16.30
2022-08-29T02:40:55.629Z,16.30
2022-08-29T02:43:58.606Z,16.40
2022-08-29T02:47:00.443Z,16.50
2022-08-29T02:50:06.633Z,16.40
2022-08-29T02:53:09.383Z,16.30
2022-08-29T02:56:14.344Z,16.30
2022-08-29T02:59:16.239Z,16.20
2022-08-29T03:02:18.071Z,16.20
2022-08-29T03:05:27.564Z,16.30
2022-08-29T03:08:29.986Z,16.20
2022-08-29T03:11:31.729Z,16.40
2022-08-29T03:14:33.716Z,16.30
2022-08-29T03:17:35.669Z,16.20
2022-08-29T03:20:38.195Z,16.30
2022-08-29T03:23:39.949Z,16.20
2022-08-29T03:26:41.932Z,16.20
2022-08-29T03:29:43.720Z,16.00
2022-08-29T03:32:45.647Z,15.80
2022-08-29T03:35:47.553Z,15.80
2022-08-29T03:38:49.417Z,15.70
2022-08-29T03:41:51.492Z,15.90
2022-08-29T03:44:53.567Z,15.90
2022-08-29T03:47:55.512Z,16.00
2022-08-29T03:50:57.296Z,16.10
2022-08-29T03:53:59.336Z,16.00
2022-08-29T03:57:01.106Z,15.90
2022-08-29T04:00:10.633Z,16.00
2022-08-29T04:03:12.512Z,15.90
2022-08-29T04:06:15.446Z,15.90
2022-08-29T04:09:17.118Z,15.80
2022-08-29T04:12:19.181Z,15.70
2022-08-29T04:15:21.309Z,15.60
2022-08-29T04:18:23.193Z,15.80
2022-08-29T04:21:25.963Z,15.80
2022-08-29T04:24:31.356Z,15.70
2022-08-29T04:27:34.016Z,15.70
2022-08-29T04:30:37.315Z,15.70
2022-08-29T04:33:39.124Z,15.60
2022-08-29T04:36:43.900Z,15.70
2022-08-29T04:39:45.645Z,15.60
2022-08-29T04:42:48.090Z,15.70
2022-08-29T04:45:59.118Z,15.80
2022-08-29T04:49:04.231Z,15.80
2022-08-29T04:52:06.453Z,15.80
2022-08-29T04:55:09.565Z,15.70
2022-08-29T04:58:11.310Z,15.70
2022-08-29T05:01:19.222Z,15.70
2022-08-29T05:04:21.021Z,15.60
2022-08-29T05:07:27.051Z,15.60
2022-08-29T05:10:29.128Z,15.50
2022-08-29T05:13:31.207Z,15.60
2022-08-29T05:16:37.100Z,15.70
2022-08-29T05:19:45.260Z,15.70
2022-08-29T05:22:47.166Z,15.50
2022-08-29T05:25:59.497Z,15.70
2022-08-29T05:29:01.706Z,15.60
2022-08-29T05:32:03.827Z,15.60
2022-08-29T05:35:06.084Z,15.60
2022-08-29T05:38:09.487Z,15.50
2022-08-29T05:41:11.745Z,15.40
2022-08-29T05:44:13.662Z,15.60
2022-08-29T05:47:17.328Z,15.60
2022-08-29T05:50:19.364Z,15.60
2022-08-29T05:53:21.366Z,15.60
2022-08-29T05:56:26.443Z,15.50
2022-08-29T05:59:28.337Z,15.40
2022-08-29T06:02:30.432Z,15.60
2022-08-29T06:05:32.298Z,15.70
2022-08-29T06:08:34.091Z,15.80
2022-08-29T06:11:36.067Z,15.90
2022-08-29T06:14:38.361Z,16.00
2022-08-29T06:17:40.213Z,15.90
2022-08-29T06:20:42.070Z,16.00
2022-08-29T06:23:45.042Z,16.00
2022-08-29T06:26:46.779Z,16.10
2022-08-29T06:29:48.485Z,16.20
2022-08-29T06:32:50.287Z,16.30
2022-08-29T06:35:53.103Z,16.40
2022-08-29T06:39:00.022Z,16.40
2022-08-29T06:42:01.810Z,16.50
2022-08-29T06:45:05.151Z,16.50
2022-08-29T06:48:06.910Z,16.40
2022-08-29T06:51:08.724Z,16.50
2022-08-29T06:54:12.576Z,16.50
2022-08-29T06:57:15.954Z,16.60
2022-08-29T07:00:22.375Z,16.50
2022-08-29T07:03:25.162Z,16.60
2022-08-29T07:06:28.811Z,16.60
2022-08-29T07:09:32.326Z,16.60
2022-08-29T07:12:34.020Z,16.70
2022-08-29T07:15:36.000Z,16.60
2022-08-29T07:18:38.070Z,16.60
2022-08-29T07:21:40.075Z,16.60
2022-08-29T07:24:41.816Z,16.70
2022-08-29T07:27:43.886Z,16.80
2022-08-29T07:30:45.956Z,16.80
2022-08-29T07:33:53.370Z,16.90
2022-08-29T07:37:05.768Z,16.90
2022-08-29T07:40:11.014Z,16.90
2022-08-29T07:43:16.524Z,16.90
2022-08-29T07:46:22.127Z,16.90
2022-08-29T07:49:32.435Z,17.10
2022-08-29T07:52:42.181Z,17.10
2022-08-29T07:55:44.115Z,17.20
2022-08-29T07:58:46.045Z,17.20
2022-08-29T08:01:48.068Z,17.30
2022-08-29T08:04:52.589Z,17.30
2022-08-29T08:07:55.507Z,17.40
2022-08-29T08:10:58.064Z,17.50
2022-08-29T08:14:00.179Z,17.50
2022-08-29T08:17:02.076Z,17.50
2022-08-29T08:20:08.104Z,17.60
2022-08-29T08:23:09.955Z,17.60
2022-08-29T08:26:13.181Z,17.70
2022-08-29T08:29:15.565Z,17.80
2022-08-29T08:32:17.345Z,17.90
2022-08-29T08:35:22.710Z,17.90
2022-08-29T08:38:24.740Z,18.00
2022-08-29T08:41:54.354Z,18.10
2022-08-29T08:45:06.481Z,18.20
2022-08-29T08:48:24.181Z,18.20
2022-08-29T08:51:32.241Z,18.20
2022-08-29T08:54:47.083Z,18.30
2022-08-29T08:58:02.247Z,18.30
2022-08-29T09:01:32.178Z,18.50
2022-08-29T09:04:43.118Z,18.60
2022-08-29T09:07:54.303Z,18.70
2022-08-29T09:11:03.274Z,18.70
2022-08-29T09:14:18.187Z,18.80
2022-08-29T09:17:36.469Z,18.80
2022-08-29T09:20:40.605Z,18.90
2022-08-29T09:23:49.494Z,18.90
2022-08-29T09:26:51.346Z,19.00
2022-08-29T09:30:11.370Z,19.10
2022-08-29T09:33:15.682Z,19.20
2022-08-29T09:36:42.169Z,19.20
2022-08-29T09:39:59.608Z,19.30
2022-08-29T09:43:02.900Z,19.30
2022-08-29T09:46:11.257Z,19.30
2022-08-29T09:49:32.329Z,19.30
2022-08-29T09:52:35.889Z,19.40
2022-08-29T09:55:42.543Z,19.40
2022-08-29T09:59:01.527Z,19.30
2022-08-29T10:02:26.631Z,19.40
2022-08-29T10:05:42.142Z,19.40
2022-08-29T10:09:04.405Z,19.40
2022-08-29T10:12:14.192Z,19.40
2022-08-29T10:15:48.894Z,19.40
2022-08-29T10:18:55.174Z,19.50
2022-08-29T10:22:08.617Z,19.60
2022-08-29T10:25:17.615Z,19.60
2022-08-29T10:28:48.150Z,19.60
2022-08-29T10:32:47.261Z,19.60
2022-08-29T10:35:58.928Z,19.70
2022-08-29T10:39:31.366Z,19.60
2022-08-29T10:42:37.075Z,19.60
2022-08-29T10:46:10.586Z,19.50
2022-08-29T10:49:45.172Z,19.50
2022-08-29T10:52:52.841Z,19.40
2022-08-29T10:56:01.113Z,19.40
2022-08-29T10:59:42.808Z,19.60
2022-08-29T11:02:54.007Z,19.60
2022-08-29T11:06:10.748Z,19.70
2022-08-29T11:09:20.989Z,19.70
2022-08-29T11:12:45.227Z,19.70
2022-08-29T11:16:06.093Z,19.80
2022-08-29T11:19:22.588Z,19.80
2022-08-29T11:22:33.538Z,19.90
2022-08-29T11:25:36.800Z,19.90
2022-08-29T11:31:56.339Z,20.00
2022-08-29T11:35:03.866Z,20.10
2022-08-29T11:38:21.130Z,20.20
2022-08-29T11:41:35.286Z,20.30
2022-08-29T11:44:46.432Z,20.30
2022-08-29T11:47:48.548Z,20.40
2022-08-29T11:50:50.670Z,20.50
2022-08-29T11:53:52.451Z,20.40
2022-08-29T11:57:00.366Z,20.40
2022-08-29T12:00:04.541Z,20.60
2022-08-29T12:03:32.791Z,20.70
2022-08-29T12:06:56.855Z,20.80
2022-08-29T12:10:07.529Z,20.80
2022-08-29T12:13:09.434Z,20.90
2022-08-29T12:16:13.297Z,20.90
2022-08-29T12:19:48.621Z,20.90
2022-08-29T12:23:15.343Z,21.00
2022-08-29T12:26:53.141Z,21.10
2022-08-29T12:29:55.079Z,21.10
2022-08-29T12:33:23.454Z,21.00
2022-08-29T12:37:22.214Z,21.10
2022-08-29T12:41:13.017Z,21.10
2022-08-29T12:44:17.441Z,21.10
2022-08-29T12:47:19.207Z,21.10
2022-08-29T12:50:33.828Z,21.20
2022-08-29T12:53:36.955Z,21.30
2022-08-29T12:56:43.666Z,21.40
2022-08-29T12:59:51.412Z,21.50
2022-08-29T13:13:03.022Z,21.60
2022-08-29T13:16:25.323Z,21.60
2022-08-29T13:19:27.195Z,21.60
2022-08-29T13:22:31.826Z,21.60
2022-08-29T13:25:34.590Z,21.50
2022-08-29T13:28:44.005Z,21.60
2022-08-29T13:32:29.403Z,21.60
2022-08-29T13:35:34.124Z,21.60
2022-08-29T13:38:36.424Z,21.70
2022-08-29T13:41:38.433Z,21.70
2022-08-29T13:44:49.336Z,21.70
2022-08-29T13:47:56.123Z,21.60
2022-08-29T13:50:57.833Z,21.70
2022-08-29T13:53:59.852Z,21.70
2022-08-29T13:57:05.792Z,21.60
2022-08-29T14:00:12.347Z,21.80
2022-08-29T14:03:16.927Z,21.80
2022-08-29T14:06:21.909Z,21.80
2022-08-29T14:09:32.746Z,21.80
2022-08-29T14:12:34.570Z,21.90
2022-08-29T14:15:37.190Z,21.90
2022-08-29T14:18:39.250Z,21.90
2022-08-29T14:21:41.024Z,21.90
2022-08-29T14:24:42.933Z,21.90
2022-08-29T14:27:47.324Z,21.90
2022-08-29T14:30:52.137Z,21.90
2022-08-29T14:33:54.167Z,21.90
2022-08-29T14:36:56.199Z,22.00
2022-08-29T14:39:59.082Z,22.10
2022-08-29T14:43:02.537Z,22.10
2022-08-29T14:46:04.201Z,22.10
2022-08-29T14:49:06.620Z,22.10
2022-08-29T14:52:09.150Z,22.20
2022-08-29T14:55:12.819Z,22.20
2022-08-29T14:58:15.103Z,22.20
2022-08-29T15:01:16.983Z,22.20
2022-08-29T15:04:18.925Z,22.20
2022-08-29T15:07:23.703Z,22.30
2022-08-29T15:10:25.849Z,22.20
2022-08-29T15:13:27.754Z,22.20
2022-08-29T15:16:29.984Z,22.20
2022-08-29T15:22:54.383Z,22.30
2022-08-29T15:26:05.697Z,22.30
2022-08-29T15:29:08.927Z,22.30
2022-08-29T15:32:12.174Z,22.30
2022-08-29T15:35:15.101Z,22.30
2022-08-29T15:41:38.458Z,22.30
2022-08-29T15:44:40.728Z,22.30
2022-08-29T15:47:48.078Z,22.30
2022-08-29T15:50:50.898Z,22.30
2022-08-29T15:53:53.871Z,22.30
2022-08-29T15:57:20.768Z,22.40
2022-08-29T16:00:29.639Z,22.30
2022-08-29T16:06:53.530Z,22.30
2022-08-29T16:09:55.517Z,22.30
2022-08-29T16:12:58.322Z,22.30
2022-08-29T16:16:00.448Z,22.30
2022-08-29T16:19:05.927Z,22.20
2022-08-29T16:22:08.181Z,22.30
2022-08-29T16:25:11.825Z,22.20
2022-08-29T16:28:13.748Z,22.30
2022-08-29T16:31:17.726Z,22.30
2022-08-29T16:34:19.927Z,22.20
2022-08-29T16:37:21.749Z,22.20
2022-08-29T16:40:23.647Z,22.10
2022-08-29T16:43:25.739Z,22.10
2022-08-29T16:46:31.138Z,22.10
2022-08-29T16:49:33.865Z,22.00
2022-08-29T16:52:36.410Z,22.00
2022-08-29T16:55:38.170Z,22.00
2022-08-29T16:59:00.238Z,22.00
2022-08-29T17:02:02.854Z,22.00
2022-08-29T17:05:05.248Z,21.90
2022-08-29T17:08:07.062Z,21.90
2022-08-29T17:11:12.823Z,21.90
2022-08-29T17:14:16.131Z,21.90
2022-08-29T17:17:18.211Z,22.00
2022-08-29T17:20:20.327Z,21.90
2022-08-29T17:23:22.370Z,21.90
2022-08-29T17:26:24.763Z,21.90
2022-08-29T17:29:26.759Z,21.90
2022-08-29T17:32:28.544Z,21.90
2022-08-29T17:35:31.240Z,21.90
2022-08-29T17:38:33.481Z,21.90
2022-08-29T17:41:37.425Z,21.90
2022-08-29T17:44:39.566Z,21.90
2022-08-29T17:47:41.546Z,21.90
2022-08-29T17:50:43.785Z,21.80
2022-08-29T17:53:45.749Z,21.80
2022-08-29T17:56:48.958Z,21.70
2022-08-29T17:59:50.876Z,21.70
2022-08-29T18:02:52.974Z,21.70
2022-08-29T18:05:54.804Z,21.60
2022-08-29T18:08:57.045Z,21.60
2022-08-29T18:11:58.936Z,21.50
2022-08-29T18:15:00.897Z,21.50
2022-08-29T18:18:02.897Z,21.50
2022-08-29T18:21:05.062Z,21.50
2022-08-29T18:24:07.531Z,21.40
2022-08-29T18:27:09.752Z,21.40
2022-08-29T18:30:15.555Z,21.30
2022-08-29T18:33:18.927Z,21.30
2022-08-29T18:36:20.578Z,21.30
2022-08-29T18:39:22.508Z,21.30
2022-08-29T18:42:39.914Z,21.20
2022-08-29T18:45:43.079Z,21.20
2022-08-29T18:48:46.385Z,21.10
2022-08-29T18:51:48.128Z,21.10
2022-08-29T18:54:49.986Z,21.00
2022-08-29T18:57:52.510Z,21.00
2022-08-29T19:00:54.594Z,21.00
2022-08-29T19:03:58.617Z,21.00
2022-08-29T19:07:00.392Z,21.00
2022-08-29T19:10:02.275Z,20.90
2022-08-29T19:13:07.822Z,20.90
2022-08-29T19:16:09.949Z,20.80
2022-08-29T19:19:13.575Z,20.80
2022-08-29T19:22:16.029Z,20.80
2022-08-29T19:25:24.348Z,20.70
2022-08-29T19:28:27.276Z,20.70
2022-08-29T19:31:29.652Z,20.60
2022-08-29T19:34:31.516Z,20.70
2022-08-29T19:37:33.562Z,20.60
2022-08-29T19:40:39.248Z,20.50
2022-08-29T19:43:41.575Z,20.40
2022-08-29T19:46:49.074Z,20.40
2022-08-29T19:49:51.765Z,20.40
2022-08-29T19:52:53.567Z,20.40
2022-08-29T19:55:56.454Z,20.40
2022-08-29T19:58:59.563Z,20.40
2022-08-29T20:02:01.753Z,20.40
2022-08-29T20:05:05.021Z,20.40
2022-08-29T20:08:06.874Z,20.30
2022-08-29T20:11:29.235Z,20.30
2022-08-29T20:14:31.087Z,20.30
2022-08-29T20:17:34.538Z,20.30
2022-08-29T20:20:41.312Z,20.30
2022-08-29T20:23:49.093Z,20.30
2022-08-29T20:26:51.265Z,20.20
2022-08-29T20:29:55.278Z,20.20
2022-08-29T20:32:57.578Z,20.20
2022-08-29T20:36:18.308Z,20.20
2022-08-29T20:39:22.009Z,20.20
2022-08-29T20:42:25.287Z,20.10
2022-08-29T20:45:27.151Z,20.20
2022-08-29T20:48:31.059Z,20.10
2022-08-29T20:51:35.825Z,20.10
2022-08-29T20:54:38.877Z,20.10
2022-08-29T20:57:41.273Z,20.00
2022-08-29T21:00:43.398Z,20.10
2022-08-29T21:04:03.926Z,20.00
2022-08-29T21:07:10.221Z,20.10
2022-08-29T21:10:13.270Z,20.10
2022-08-29T21:13:16.236Z,20.10
2022-08-29T21:16:18.197Z,20.10
2022-08-29T21:19:20.627Z,20.10
2022-08-29T21:22:24.992Z,20.10
2022-08-29T21:25:27.142Z,20.10
2022-08-29T21:28:32.864Z,20.10
2022-08-29T21:31:35.628Z,20.00
2022-08-29T21:34:37.639Z,20.00
2022-08-29T21:37:39.376Z,20.00
2022-08-29T21:40:51.048Z,20.00
2022-08-29T21:43:53.467Z,20.00
2022-08-29T21:46:55.542Z,19.90
2022-08-29T21:49:57.730Z,19.90
2022-08-29T21:52:59.689Z,19.90
2022-08-29T21:56:01.606Z,19.80
2022-08-29T21:59:05.535Z,19.70
2022-08-29T22:02:07.293Z,19.60
2022-08-29T22:05:09.433Z,19.60
2022-08-29T22:08:13.821Z,19.70
2022-08-29T22:11:24.910Z,19.60
2022-08-29T22:14:57.345Z,19.60
2022-08-29T22:17:59.100Z,19.50
2022-08-29T22:21:00.802Z,19.50
2022-08-29T22:24:03.575Z,19.40
2022-08-29T22:27:05.637Z,19.50
2022-08-29T22:34:05.284Z,19.60
2022-08-29T22:37:07.329Z,19.60
2022-08-29T22:40:16.489Z,19.60
2022-08-29T22:43:18.517Z,19.60
2022-08-29T22:46:22.896Z,19.60
2022-08-29T22:49:32.994Z,19.60
2022-08-29T22:52:35.930Z,19.50
2022-08-29T22:55:38.490Z,19.50
2022-08-29T22:58:40.443Z,19.40
2022-08-29T23:01:44.281Z,19.30
2022-08-29T23:04:48.418Z,19.40
2022-08-29T23:07:50.759Z,19.20
2022-08-29T23:10:53.417Z,19.30
2022-08-29T23:13:57.012Z,19.20
2022-08-29T23:16:59.044Z,19.20
2022-08-29T23:20:00.944Z,19.30
2022-08-29T23:23:02.798Z,19.30
2022-08-29T23:26:10.607Z,19.30
2022-08-29T23:29:12.463Z,19.30
2022-08-29T23:32:14.238Z,19.30
2022-08-29T23:35:16.175Z,19.30
2022-08-29T23:38:19.013Z,19.30
2022-08-29T23:41:22.188Z,19.30
2022-08-29T23:44:24.036Z,19.30
2022-08-29T23:47:26.006Z,19.30
2022-08-29T23:50:27.949Z,19.20
2022-08-29T23:53:30.268Z,19.20
2022-08-29T23:56:32.156Z,19.20
